OPLA/LHE METAR and TAF weather

Enter ICAO airport designator
Station Type Date Time Source
OPLA METAR 2019/02/23 22:55 UTC NOAA

OPLA 232255Z 26003KT 4000 FU NSC 11/08 Q1012 NOSIG RMK QFE986 RMK A29.88


Station Type Date Time Source
OPLA Decoded METAR 2019/02/23 22:55 UTC NOAA

Lahore Airport, Pakistan (OPLA) 31-31N 074-24E 217M
Feb 23, 2019 - 05:55 PM EST / 2019.02.23 2255 UTC
Wind: from the W (260 degrees) at 3 MPH (3 KT):0
Visibility: 2 mile(s):0
Weather: smoke
Temperature: 51 F (11 C)
Dew Point: 46 F (8 C)
Relative Humidity: 81%
Pressure (altimeter): 29.88 in. Hg (1012 hPa)
ob: OPLA 232255Z 26003KT 4000 FU NSC 11/08 Q1012 NOSIG RMK QFE986 RMK A29.88
cycle: 23

Station Type Date Time Source
OPLA TAF 2019/02/23 18:03 UTC NOAA

TAF TAF OPLA 231545Z 2318/2424 30005KT 4000 FU NSC TX22/2310Z TN08/2402Z
TEMPO 2401/2404 2000 BR
BECMG 2408/2413 6000
BECMG 2420/2424 13005KT 3000 FU FEW040 SCT100


Example: see airport list